sensor_id;sensor_type;location;lat;lon;timestamp;temperature;humidity
3709;DHT22;1870;53.996;10.784;2023-04-24T09:31:58;15.40;99.90
3709;DHT22;1870;53.996;10.784;2023-04-24T09:34:26;15.70;99.90
3709;DHT22;1870;53.996;10.784;2023-04-24T09:36:52;15.70;99.90
3709;DHT22;1870;53.996;10.784;2023-04-24T09:39:18;15.80;99.90
3709;DHT22;1870;53.996;10.784;2023-04-24T09:41:54;15.80;99.90
3709;DHT22;1870;53.996;10.784;2023-04-24T09:44:25;15.80;99.90
3709;DHT22;1870;53.996;10.784;2023-04-24T09:46:52;15.80;99.90
3709;DHT22;1870;53.996;10.784;2023-04-24T09:49:31;15.80;99.90
3709;DHT22;1870;53.996;10.784;2023-04-24T09:52:09;15.80;99.90
3709;DHT22;1870;53.996;10.784;2023-04-24T09:54:35;15.80;99.90
3709;DHT22;1870;53.996;10.784;2023-04-24T09:57:02;15.70;99.90
3709;DHT22;1870;53.996;10.784;2023-04-24T09:59:28;15.70;99.90
3709;DHT22;1870;53.996;10.784;2023-04-24T10:01:55;15.50;99.90
3709;DHT22;1870;53.996;10.784;2023-04-24T10:04:28;15.40;99.90
3709;DHT22;1870;53.996;10.784;2023-04-24T10:06:57;15.40;99.90
3709;DHT22;1870;53.996;10.784;2023-04-24T10:09:26;15.40;99.90
3709;DHT22;1870;53.996;10.784;2023-04-24T10:11:53;15.40;99.90
3709;DHT22;1870;53.996;10.784;2023-04-24T10:14:21;15.50;99.90
3709;DHT22;1870;53.996;10.784;2023-04-24T10:16:48;15.60;99.90
3709;DHT22;1870;53.996;10.784;2023-04-24T10:19:16;15.70;99.90
3709;DHT22;1870;53.996;10.784;2023-04-24T10:21:46;15.90;99.90
3709;DHT22;1870;53.996;10.784;2023-04-24T10:24:18;16.00;99.90
3709;DHT22;1870;53.996;10.784;2023-04-24T10:26:46;15.90;99.90
3709;DHT22;1870;53.996;10.784;2023-04-24T10:29:15;15.80;99.90
3709;DHT22;1870;53.996;10.784;2023-04-24T10:31:41;15.60;99.90
3709;DHT22;1870;53.996;10.784;2023-04-24T10:34:08;15.50;99.90
3709;DHT22;1870;53.996;10.784;2023-04-24T10:36:38;15.50;99.90
3709;DHT22;1870;53.996;10.784;2023-04-24T10:39:09;15.50;99.90
3709;DHT22;1870;53.996;10.784;2023-04-24T10:41:39;15.50;99.90
3709;DHT22;1870;53.996;10.784;2023-04-24T10:44:12;15.30;99.90
3709;DHT22;1870;53.996;10.784;2023-04-24T10:46:43;15.20;99.90
3709;DHT22;1870;53.996;10.784;2023-04-24T10:49:09;15.10;99.90
3709;DHT22;1870;53.996;10.784;2023-04-24T10:51:47;14.90;99.90
3709;DHT22;1870;53.996;10.784;2023-04-24T10:54:33;14.90;99.90
3709;DHT22;1870;53.996;10.784;2023-04-24T10:59:43;15.20;99.90
3709;DHT22;1870;53.996;10.784;2023-04-24T11:02:09;15.30;99.90
3709;DHT22;1870;53.996;10.784;2023-04-24T11:04:35;15.50;99.90
3709;DHT22;1870;53.996;10.784;2023-04-24T11:07:02;15.70;99.90
3709;DHT22;1870;53.996;10.784;2023-04-24T11:09:31;15.80;99.90
3709;DHT22;1870;53.996;10.784;2023-04-24T11:14:59;16.00;99.90
3709;DHT22;1870;53.996;10.784;2023-04-24T11:20:01;16.10;99.90
3709;DHT22;1870;53.996;10.784;2023-04-24T11:22:29;16.20;99.90
3709;DHT22;1870;53.996;10.784;2023-04-24T11:24:59;16.20;99.90
3709;DHT22;1870;53.996;10.784;2023-04-24T11:27:30;16.20;99.90
3709;DHT22;1870;53.996;10.784;2023-04-24T11:35:43;16.20;99.90
3709;DHT22;1870;53.996;10.784;2023-04-24T11:37:52;16.30;99.90
3709;DHT22;1870;53.996;10.784;2023-04-24T11:40:19;16.50;99.90
3709;DHT22;1870;53.996;10.784;2023-04-24T11:42:47;16.60;99.90
3709;DHT22;1870;53.996;10.784;2023-04-24T11:45:17;16.60;99.90
3709;DHT22;1870;53.996;10.784;2023-04-24T11:47:44;16.60;99.90
3709;DHT22;1870;53.996;10.784;2023-04-24T11:50:12;16.60;99.90
3709;DHT22;1870;53.996;10.784;2023-04-24T11:52:43;16.40;99.90
3709;DHT22;1870;53.996;10.784;2023-04-24T11:57:48;16.30;99.90
3709;DHT22;1870;53.996;10.784;2023-04-24T12:00:20;16.30;99.90
3709;DHT22;1870;53.996;10.784;2023-04-24T12:02:46;16.50;99.90
3709;DHT22;1870;53.996;10.784;2023-04-24T12:05:26;16.50;99.90
3709;DHT22;1870;53.996;10.784;2023-04-24T12:07:52;16.60;99.90
3709;DHT22;1870;53.996;10.784;2023-04-24T12:10:23;16.70;99.90
3709;DHT22;1870;53.996;10.784;2023-04-24T12:12:49;16.80;99.90
3709;DHT22;1870;53.996;10.784;2023-04-24T12:15:17;16.90;99.90
3709;DHT22;1870;53.996;10.784;2023-04-24T12:17:44;16.90;99.90
3709;DHT22;1870;53.996;10.784;2023-04-24T12:20:10;17.00;99.90
3709;DHT22;1870;53.996;10.784;2023-04-24T12:23:06;17.10;99.90
3709;DHT22;1870;53.996;10.784;2023-04-24T12:25:32;17.10;99.90
3709;DHT22;1870;53.996;10.784;2023-04-24T12:30:31;17.00;99.90
3709;DHT22;1870;53.996;10.784;2023-04-24T12:32:58;16.80;99.90
3709;DHT22;1870;53.996;10.784;2023-04-24T12:35:25;16.90;99.90
3709;DHT22;1870;53.996;10.784;2023-04-24T12:37:52;16.90;99.90
3709;DHT22;1870;53.996;10.784;2023-04-24T12:40:20;16.80;99.90
3709;DHT22;1870;53.996;10.784;2023-04-24T12:42:50;16.80;99.90
3709;DHT22;1870;53.996;10.784;2023-04-24T12:45:18;16.80;99.90
3709;DHT22;1870;53.996;10.784;2023-04-24T12:47:44;16.80;99.90
3709;DHT22;1870;53.996;10.784;2023-04-24T12:50:12;16.90;99.90
3709;DHT22;1870;53.996;10.784;2023-04-24T12:52:39;16.80;99.90
3709;DHT22;1870;53.996;10.784;2023-04-24T12:55:06;16.90;99.90
3709;DHT22;1870;53.996;10.784;2023-04-24T12:57:36;16.80;99.90
3709;DHT22;1870;53.996;10.784;2023-04-24T13:00:03;16.80;99.90
3709;DHT22;1870;53.996;10.784;2023-04-24T13:02:30;16.90;99.90
3709;DHT22;1870;53.996;10.784;2023-04-24T13:04:57;16.90;99.90
3709;DHT22;1870;53.996;10.784;2023-04-24T13:07:23;17.10;99.90
3709;DHT22;1870;53.996;10.784;2023-04-24T13:09:50;17.20;99.90
3709;DHT22;1870;53.996;10.784;2023-04-24T13:12:16;17.30;99.90
3709;DHT22;1870;53.996;10.784;2023-04-24T13:14:42;17.30;99.90
3709;DHT22;1870;53.996;10.784;2023-04-24T13:17:08;17.30;99.90
3709;DHT22;1870;53.996;10.784;2023-04-24T13:19:39;17.20;99.90
3709;DHT22;1870;53.996;10.784;2023-04-24T13:22:08;17.20;99.90
3709;DHT22;1870;53.996;10.784;2023-04-24T13:24:34;17.20;99.90
3709;DHT22;1870;53.996;10.784;2023-04-24T13:27:00;17.30;99.90
3709;DHT22;1870;53.996;10.784;2023-04-24T13:29:26;17.40;99.90
3709;DHT22;1870;53.996;10.784;2023-04-24T13:31:53;17.40;99.90
3709;DHT22;1870;53.996;10.784;2023-04-24T13:34:25;17.40;99.90
3709;DHT22;1870;53.996;10.784;2023-04-24T13:36:52;17.50;99.90
3709;DHT22;1870;53.996;10.784;2023-04-24T13:39:18;17.60;99.90
3709;DHT22;1870;53.996;10.784;2023-04-24T13:41:44;17.60;99.90
3709;DHT22;1870;53.996;10.784;2023-04-24T13:44:10;17.70;99.90
3709;DHT22;1870;53.996;10.784;2023-04-24T13:46:36;17.90;99.90
3709;DHT22;1870;53.996;10.784;2023-04-24T13:49:02;17.90;99.90
3709;DHT22;1870;53.996;10.784;2023-04-24T13:51:29;17.90;99.90
3709;DHT22;1870;53.996;10.784;2023-04-24T13:53:55;17.90;99.90
3709;DHT22;1870;53.996;10.784;2023-04-24T13:56:21;17.90;99.90
3709;DHT22;1870;53.996;10.784;2023-04-24T13:58:48;17.90;99.90
3709;DHT22;1870;53.996;10.784;2023-04-24T14:01:14;17.80;99.90
3709;DHT22;1870;53.996;10.784;2023-04-24T14:03:41;17.80;99.90
3709;DHT22;1870;53.996;10.784;2023-04-24T14:06:07;17.60;99.90
3709;DHT22;1870;53.996;10.784;2023-04-24T14:08:32;17.50;99.90
3709;DHT22;1870;53.996;10.784;2023-04-24T14:10:58;17.30;99.90
3709;DHT22;1870;53.996;10.784;2023-04-24T14:13:24;16.80;99.90
3709;DHT22;1870;53.996;10.784;2023-04-24T14:15:50;16.50;99.90
3709;DHT22;1870;53.996;10.784;2023-04-24T14:18:18;16.30;99.90
3709;DHT22;1870;53.996;10.784;2023-04-24T14:20:44;16.40;99.90
3709;DHT22;1870;53.996;10.784;2023-04-24T14:23:09;16.40;99.90
3709;DHT22;1870;53.996;10.784;2023-04-24T14:25:35;16.40;99.90
3709;DHT22;1870;53.996;10.784;2023-04-24T14:28:01;16.30;99.90
3709;DHT22;1870;53.996;10.784;2023-04-24T14:30:29;16.10;99.90
3709;DHT22;1870;53.996;10.784;2023-04-24T14:32:54;15.80;99.90
3709;DHT22;1870;53.996;10.784;2023-04-24T14:35:20;15.70;99.90
3709;DHT22;1870;53.996;10.784;2023-04-24T14:37:46;15.60;99.90
3709;DHT22;1870;53.996;10.784;2023-04-24T14:40:13;15.50;99.90
3709;DHT22;1870;53.996;10.784;2023-04-24T14:42:39;15.50;99.90
3709;DHT22;1870;53.996;10.784;2023-04-24T14:45:06;15.50;99.90
3709;DHT22;1870;53.996;10.784;2023-04-24T14:47:33;15.50;99.90
3709;DHT22;1870;53.996;10.784;2023-04-24T14:49:58;15.60;99.90
3709;DHT22;1870;53.996;10.784;2023-04-24T14:52:24;15.70;99.90
3709;DHT22;1870;53.996;10.784;2023-04-24T14:54:50;15.90;99.90
3709;DHT22;1870;53.996;10.784;2023-04-24T14:57:16;15.90;99.90
3709;DHT22;1870;53.996;10.784;2023-04-24T14:59:44;15.90;99.90
3709;DHT22;1870;53.996;10.784;2023-04-24T15:02:09;16.00;99.90
3709;DHT22;1870;53.996;10.784;2023-04-24T15:04:36;16.00;99.90
3709;DHT22;1870;53.996;10.784;2023-04-24T15:07:01;16.00;99.90
3709;DHT22;1870;53.996;10.784;2023-04-24T15:09:27;16.10;99.90
3709;DHT22;1870;53.996;10.784;2023-04-24T15:11:53;16.10;99.90
3709;DHT22;1870;53.996;10.784;2023-04-24T15:14:19;16.10;99.90
3709;DHT22;1870;53.996;10.784;2023-04-24T15:16:45;16.00;99.90
3709;DHT22;1870;53.996;10.784;2023-04-24T15:19:13;15.90;99.90
3709;DHT22;1870;53.996;10.784;2023-04-24T15:21:39;15.80;99.90
3709;DHT22;1870;53.996;10.784;2023-04-24T15:24:07;15.70;99.90
3709;DHT22;1870;53.996;10.784;2023-04-24T15:26:32;15.70;99.90
3709;DHT22;1870;53.996;10.784;2023-04-24T15:28:58;15.70;99.90
3709;DHT22;1870;53.996;10.784;2023-04-24T15:31:26;15.70;99.90
3709;DHT22;1870;53.996;10.784;2023-04-24T15:33:52;15.60;99.90
3709;DHT22;1870;53.996;10.784;2023-04-24T15:36:18;15.60;99.90
3709;DHT22;1870;53.996;10.784;2023-04-24T15:38:44;15.50;99.90
3709;DHT22;1870;53.996;10.784;2023-04-24T15:41:11;15.40;99.90
3709;DHT22;1870;53.996;10.784;2023-04-24T15:43:37;15.30;99.90
3709;DHT22;1870;53.996;10.784;2023-04-24T15:46:04;15.30;99.90
3709;DHT22;1870;53.996;10.784;2023-04-24T15:48:30;15.30;99.90
3709;DHT22;1870;53.996;10.784;2023-04-24T15:50:56;15.20;99.90
3709;DHT22;1870;53.996;10.784;2023-04-24T15:53:28;15.00;99.90
3709;DHT22;1870;53.996;10.784;2023-04-24T15:55:54;14.90;99.90
3709;DHT22;1870;53.996;10.784;2023-04-24T15:58:21;14.80;99.90
3709;DHT22;1870;53.996;10.784;2023-04-24T16:00:48;14.70;99.90
3709;DHT22;1870;53.996;10.784;2023-04-24T16:03:14;14.60;99.90
3709;DHT22;1870;53.996;10.784;2023-04-24T16:05:42;14.60;99.90
3709;DHT22;1870;53.996;10.784;2023-04-24T16:08:08;14.60;99.90
3709;DHT22;1870;53.996;10.784;2023-04-24T16:10:34;14.60;99.90
3709;DHT22;1870;53.996;10.784;2023-04-24T16:13:00;14.50;99.90
3709;DHT22;1870;53.996;10.784;2023-04-24T16:15:28;14.30;99.90
3709;DHT22;1870;53.996;10.784;2023-04-24T16:17:54;14.10;99.90
3709;DHT22;1870;53.996;10.784;2023-04-24T16:20:19;13.90;99.90
3709;DHT22;1870;53.996;10.784;2023-04-24T16:22:45;13.80;99.90
3709;DHT22;1870;53.996;10.784;2023-04-24T16:25:11;13.60;99.90
3709;DHT22;1870;53.996;10.784;2023-04-24T16:27:36;13.40;99.90
3709;DHT22;1870;53.996;10.784;2023-04-24T16:30:03;13.30;99.90
3709;DHT22;1870;53.996;10.784;2023-04-24T16:32:29;13.20;99.90
3709;DHT22;1870;53.996;10.784;2023-04-24T16:34:55;13.10;99.90
3709;DHT22;1870;53.996;10.784;2023-04-24T16:37:21;12.90;99.90
3709;DHT22;1870;53.996;10.784;2023-04-24T16:39:46;12.80;99.90
